createdAt,value
2018-09-23T00:02:22.652Z,12.00
2018-09-23T00:04:51.267Z,12.00
2018-09-23T00:07:19.984Z,12.00
2018-09-23T00:09:48.564Z,12.00
2018-09-23T00:12:17.113Z,12.00
2018-09-23T00:14:45.666Z,12.00
2018-09-23T00:17:14.208Z,12.00
2018-09-23T00:19:43.055Z,12.00
2018-09-23T00:22:11.629Z,12.00
2018-09-23T00:24:40.194Z,12.00
2018-09-23T00:27:08.710Z,12.00
2018-09-23T00:29:42.539Z,12.00
2018-09-23T00:32:11.104Z,12.10
2018-09-23T00:34:39.886Z,12.10
2018-09-23T00:37:08.563Z,12.10
2018-09-23T00:39:37.123Z,12.10
2018-09-23T00:42:05.663Z,12.10
2018-09-23T00:44:34.214Z,12.20
2018-09-23T00:47:03.025Z,12.10
2018-09-23T00:49:31.551Z,12.10
2018-09-23T00:52:00.097Z,12.10
2018-09-23T00:54:28.636Z,12.20
2018-09-23T00:56:57.213Z,12.10
2018-09-23T00:59:25.742Z,12.10
2018-09-23T01:01:54.310Z,12.10
2018-09-23T01:04:22.897Z,12.10
2018-09-23T01:06:51.472Z,12.00
2018-09-23T01:09:20.044Z,12.00
2018-09-23T01:11:48.604Z,12.00
2018-09-23T01:14:17.177Z,11.90
2018-09-23T01:16:45.733Z,11.90
2018-09-23T01:19:14.326Z,11.90
2018-09-23T01:21:42.911Z,11.80
2018-09-23T01:24:11.523Z,11.80
2018-09-23T01:26:40.087Z,11.80
2018-09-23T01:29:08.649Z,11.70
2018-09-23T01:31:37.201Z,11.70
2018-09-23T01:34:05.829Z,11.70
2018-09-23T01:36:34.418Z,11.70
2018-09-23T01:39:03.115Z,11.70
2018-09-23T01:41:31.777Z,11.70
2018-09-23T01:44:00.332Z,11.70
2018-09-23T01:46:28.874Z,11.70
2018-09-23T01:48:57.509Z,11.70
2018-09-23T01:51:26.065Z,11.60
2018-09-23T01:53:54.605Z,11.60
2018-09-23T01:56:23.147Z,11.60
2018-09-23T01:58:51.733Z,11.60
2018-09-23T02:01:20.317Z,11.60
2018-09-23T02:03:48.892Z,11.50
2018-09-23T02:06:17.450Z,11.50
2018-09-23T02:08:46.009Z,11.50
2018-09-23T02:11:14.538Z,11.50
2018-09-23T02:13:43.095Z,11.50
2018-09-23T02:16:11.633Z,11.50
2018-09-23T02:18:40.183Z,11.50
2018-09-23T02:21:08.834Z,11.50
2018-09-23T02:23:37.319Z,11.50
2018-09-23T02:26:05.913Z,11.50
2018-09-23T02:28:34.480Z,11.50
2018-09-23T02:31:03.017Z,11.40
2018-09-23T02:33:31.572Z,11.40
2018-09-23T02:36:00.138Z,11.40
2018-09-23T02:38:28.690Z,11.30
2018-09-23T02:40:57.226Z,11.30
2018-09-23T02:43:25.781Z,11.30
2018-09-23T02:45:54.340Z,11.30
2018-09-23T02:48:22.871Z,11.30
2018-09-23T02:50:51.395Z,11.20
2018-09-23T02:53:19.948Z,11.20
2018-09-23T02:55:48.523Z,11.20
2018-09-23T02:58:17.148Z,11.20
2018-09-23T03:00:45.690Z,11.20
2018-09-23T03:03:14.226Z,11.10
2018-09-23T03:05:42.915Z,11.10
2018-09-23T03:08:11.503Z,11.10
2018-09-23T03:10:40.135Z,11.10
2018-09-23T03:13:08.695Z,11.00
2018-09-23T03:15:37.383Z,11.00
2018-09-23T03:18:05.961Z,11.00
2018-09-23T03:20:34.495Z,11.00
2018-09-23T03:23:03.121Z,11.00
2018-09-23T03:25:31.657Z,11.00
2018-09-23T03:28:00.197Z,11.00
2018-09-23T03:30:28.723Z,11.00
2018-09-23T03:32:57.250Z,11.00
2018-09-23T03:35:25.823Z,11.00
2018-09-23T03:37:54.385Z,11.00
2018-09-23T03:40:22.997Z,11.00
2018-09-23T03:42:51.598Z,11.00
2018-09-23T03:45:20.139Z,10.90
2018-09-23T03:47:48.664Z,11.00
2018-09-23T03:50:17.187Z,10.90
2018-09-23T03:52:45.725Z,11.00
2018-09-23T03:55:14.291Z,10.90
2018-09-23T03:57:42.849Z,10.90
2018-09-23T04:00:11.446Z,10.90
2018-09-23T04:02:40.043Z,10.90
2018-09-23T04:05:08.620Z,10.90
2018-09-23T04:07:37.164Z,10.90
2018-09-23T04:10:05.755Z,10.90
2018-09-23T04:12:34.315Z,10.90
2018-09-23T04:15:02.863Z,10.90
2018-09-23T04:17:31.433Z,10.90
2018-09-23T04:19:59.979Z,10.80
2018-09-23T04:22:28.538Z,10.80
2018-09-23T04:24:57.074Z,10.90
2018-09-23T04:27:25.620Z,10.80
2018-09-23T04:29:54.211Z,10.80
2018-09-23T04:32:22.736Z,10.80
2018-09-23T04:34:51.287Z,10.80
2018-09-23T04:37:19.880Z,10.80
2018-09-23T04:39:48.434Z,10.80
2018-09-23T04:42:17.023Z,10.90
2018-09-23T04:44:46.290Z,10.80
2018-09-23T04:47:15.183Z,10.80
2018-09-23T04:49:43.742Z,10.80
2018-09-23T04:52:12.297Z,10.80
2018-09-23T04:54:40.837Z,10.80
2018-09-23T04:57:09.377Z,10.80
2018-09-23T04:59:37.956Z,10.80
2018-09-23T05:02:06.969Z,10.80
2018-09-23T05:04:35.501Z,10.80
2018-09-23T05:07:04.071Z,10.80
2018-09-23T05:09:32.639Z,10.80
2018-09-23T05:12:01.198Z,10.80
2018-09-23T05:14:29.741Z,10.80
2018-09-23T05:16:58.360Z,10.80
2018-09-23T05:19:26.961Z,10.90
2018-09-23T05:22:16.289Z,10.90
2018-09-23T05:24:44.966Z,10.90
2018-09-23T05:27:13.536Z,10.90
2018-09-23T05:29:42.064Z,10.90
2018-09-23T05:32:10.589Z,10.90
2018-09-23T05:34:39.129Z,10.90
2018-09-23T05:37:07.736Z,10.90
2018-09-23T05:39:36.308Z,10.90
2018-09-23T05:42:04.975Z,11.00
2018-09-23T05:44:33.652Z,11.00
2018-09-23T05:47:02.207Z,11.00
2018-09-23T05:49:30.765Z,11.00
2018-09-23T05:51:59.297Z,11.00
2018-09-23T05:54:27.937Z,11.00
2018-09-23T05:56:56.487Z,11.00
2018-09-23T05:59:25.066Z,11.10
2018-09-23T06:01:53.612Z,11.10
2018-09-23T06:04:22.153Z,11.20
2018-09-23T06:06:50.727Z,11.20
2018-09-23T06:09:19.277Z,11.20
2018-09-23T06:11:47.880Z,11.30
2018-09-23T06:14:16.442Z,11.30
2018-09-23T06:16:44.988Z,11.30
2018-09-23T06:19:13.532Z,11.40
2018-09-23T06:21:42.072Z,11.40
2018-09-23T06:24:10.613Z,11.40
2018-09-23T06:26:39.170Z,11.50
2018-09-23T06:29:07.735Z,11.50
2018-09-23T06:31:36.301Z,11.50
2018-09-23T06:34:04.868Z,11.60
2018-09-23T06:36:33.451Z,11.60
2018-09-23T06:39:02.075Z,11.60
2018-09-23T06:41:30.617Z,11.70
2018-09-23T06:43:59.190Z,11.70
2018-09-23T06:46:27.758Z,11.70
2018-09-23T06:48:56.353Z,11.80
2018-09-23T06:51:28.863Z,11.80
2018-09-23T06:53:57.458Z,11.90
2018-09-23T06:56:26.043Z,11.90
2018-09-23T06:58:54.629Z,12.00
2018-09-23T07:01:23.151Z,12.10
2018-09-23T07:03:51.712Z,12.10
2018-09-23T07:06:20.261Z,12.20
2018-09-23T07:08:48.830Z,12.20
2018-09-23T07:11:17.372Z,12.20
2018-09-23T07:13:45.913Z,12.20
2018-09-23T07:16:14.563Z,12.20
2018-09-23T07:18:43.162Z,12.30
2018-09-23T07:21:11.725Z,12.30
2018-09-23T07:23:40.313Z,12.30
2018-09-23T07:26:08.936Z,12.40
2018-09-23T07:28:37.518Z,12.40
2018-09-23T07:31:06.504Z,12.50
2018-09-23T07:33:35.062Z,12.60
2018-09-23T07:36:03.648Z,12.60
2018-09-23T07:38:32.242Z,12.60
2018-09-23T07:41:00.809Z,12.70
2018-09-23T07:43:29.382Z,12.80
2018-09-23T07:45:57.989Z,12.80
2018-09-23T07:48:26.519Z,12.80
2018-09-23T07:50:55.076Z,12.80
2018-09-23T07:53:23.614Z,12.80
2018-09-23T07:55:52.157Z,12.90
2018-09-23T07:58:20.750Z,12.80
2018-09-23T08:00:49.563Z,12.80
2018-09-23T08:03:18.179Z,12.80
2018-09-23T08:05:46.741Z,12.80
2018-09-23T08:08:15.382Z,12.80
2018-09-23T08:10:44.002Z,12.80
2018-09-23T08:13:13.663Z,12.80
2018-09-23T08:15:42.259Z,12.80
2018-09-23T08:18:10.883Z,12.90
2018-09-23T08:20:39.514Z,12.90
2018-09-23T08:23:08.062Z,13.00
2018-09-23T08:25:36.712Z,13.10
2018-09-23T08:28:05.302Z,13.10
2018-09-23T08:30:33.989Z,13.10
2018-09-23T08:33:02.608Z,13.10
2018-09-23T08:35:31.246Z,13.10
2018-09-23T08:37:59.819Z,13.00
2018-09-23T08:40:28.434Z,12.90
2018-09-23T08:42:57.041Z,12.80
2018-09-23T08:45:25.626Z,12.70
2018-09-23T08:47:54.240Z,12.70
2018-09-23T08:50:22.906Z,12.70
2018-09-23T08:52:51.616Z,12.70
2018-09-23T08:55:21.144Z,12.70
2018-09-23T08:57:49.751Z,12.80
2018-09-23T09:00:18.327Z,12.80
2018-09-23T09:02:47.021Z,12.80
2018-09-23T09:05:15.588Z,12.70
2018-09-23T09:07:44.240Z,12.60
2018-09-23T09:10:12.854Z,12.50
2018-09-23T09:12:41.410Z,12.40
2018-09-23T09:15:10.043Z,12.30
2018-09-23T09:17:38.585Z,12.30
2018-09-23T09:20:07.500Z,12.20
2018-09-23T09:22:36.052Z,12.10
2018-09-23T09:25:04.667Z,12.10
2018-09-23T09:27:33.200Z,12.10
2018-09-23T09:30:01.748Z,12.10
2018-09-23T09:32:30.279Z,12.10
2018-09-23T09:34:58.827Z,12.10
2018-09-23T09:37:27.379Z,12.10
2018-09-23T09:39:55.920Z,12.10
2018-09-23T09:42:24.539Z,12.10
2018-09-23T09:44:53.167Z,12.10
2018-09-23T09:47:22.064Z,12.10
2018-09-23T09:49:50.621Z,12.20
2018-09-23T09:52:19.250Z,12.20
2018-09-23T09:54:47.800Z,12.30
2018-09-23T09:57:16.367Z,12.30
2018-09-23T09:59:47.254Z,12.30
2018-09-23T10:02:17.493Z,12.40
2018-09-23T10:04:46.047Z,12.50
2018-09-23T10:07:14.625Z,12.50
2018-09-23T10:09:43.167Z,12.60
2018-09-23T10:12:11.679Z,12.60
2018-09-23T10:14:40.210Z,12.70
2018-09-23T10:17:08.768Z,12.80
2018-09-23T10:19:37.301Z,12.80
2018-09-23T10:22:06.080Z,12.90
2018-09-23T10:24:34.667Z,12.90
2018-09-23T10:27:03.278Z,12.90
2018-09-23T10:29:31.801Z,12.90
2018-09-23T10:32:00.353Z,12.90
2018-09-23T10:34:28.888Z,12.80
2018-09-23T10:36:57.494Z,12.80
2018-09-23T10:39:26.025Z,12.80
2018-09-23T10:41:54.558Z,12.80
2018-09-23T10:44:23.133Z,12.80
2018-09-23T10:46:51.715Z,12.70
2018-09-23T10:49:20.298Z,12.70
2018-09-23T10:51:48.919Z,12.60
2018-09-23T10:54:17.514Z,12.70
2018-09-23T10:56:46.089Z,12.60
2018-09-23T10:59:15.309Z,12.60
2018-09-23T11:01:45.337Z,12.60
2018-09-23T11:04:13.923Z,12.70
2018-09-23T11:06:42.630Z,12.60
2018-09-23T11:09:15.882Z,12.60
2018-09-23T11:11:44.454Z,12.70
2018-09-23T11:14:13.035Z,12.70
2018-09-23T11:16:41.686Z,12.80
2018-09-23T11:19:10.283Z,12.80
2018-09-23T11:21:38.865Z,12.80
2018-09-23T11:24:07.491Z,12.80
2018-09-23T11:26:36.155Z,12.70
2018-09-23T11:29:04.736Z,12.70
2018-09-23T11:31:33.325Z,12.60
2018-09-23T11:34:01.886Z,12.50
2018-09-23T11:36:30.472Z,12.40
2018-09-23T11:38:59.031Z,12.40
2018-09-23T11:41:28.506Z,12.20
2018-09-23T11:43:57.140Z,12.20
2018-09-23T11:46:25.914Z,12.20
2018-09-23T11:48:54.459Z,12.20
2018-09-23T11:51:23.061Z,12.10
2018-09-23T11:53:51.625Z,12.10
2018-09-23T11:56:20.180Z,12.10
2018-09-23T11:58:48.922Z,12.00
2018-09-23T12:01:17.507Z,12.00
2018-09-23T12:03:46.112Z,12.00
2018-09-23T12:06:15.747Z,12.00
2018-09-23T12:08:44.322Z,11.90
2018-09-23T12:11:13.400Z,11.90
2018-09-23T12:13:42.000Z,11.90
2018-09-23T12:16:10.647Z,11.80
2018-09-23T12:18:39.270Z,11.80
2018-09-23T12:21:07.893Z,11.80
2018-09-23T12:23:38.353Z,11.80
2018-09-23T12:26:07.737Z,11.80
2018-09-23T12:28:36.638Z,11.80
2018-09-23T12:31:05.248Z,11.80
2018-09-23T12:33:34.789Z,11.80
2018-09-23T12:36:05.139Z,11.90
2018-09-23T12:38:34.852Z,11.90
2018-09-23T12:41:03.705Z,11.80
2018-09-23T12:43:32.280Z,11.80
2018-09-23T12:46:00.910Z,11.80
2018-09-23T12:48:29.596Z,11.90
2018-09-23T12:50:58.091Z,11.90
2018-09-23T12:53:26.675Z,11.90
2018-09-23T12:55:55.215Z,11.90
2018-09-23T12:58:23.746Z,11.90
2018-09-23T13:00:52.336Z,11.80
2018-09-23T13:03:20.913Z,11.90
2018-09-23T13:05:49.480Z,12.00
2018-09-23T13:08:18.268Z,12.00
2018-09-23T13:10:46.807Z,12.00
2018-09-23T13:13:15.391Z,12.00
2018-09-23T13:15:43.936Z,12.00
2018-09-23T13:18:12.600Z,12.00
2018-09-23T13:20:42.217Z,12.00
2018-09-23T13:23:10.775Z,11.90
2018-09-23T13:25:39.353Z,11.90
2018-09-23T13:28:07.941Z,11.90
2018-09-23T13:30:36.527Z,11.90
2018-09-23T13:33:05.099Z,11.90
2018-09-23T13:35:33.695Z,11.90
2018-09-23T13:38:02.241Z,11.90
2018-09-23T13:40:30.937Z,11.90
2018-09-23T13:42:59.519Z,11.90
2018-09-23T13:45:28.074Z,11.90
2018-09-23T13:47:56.853Z,12.00
2018-09-23T13:50:25.404Z,11.90
2018-09-23T13:52:53.951Z,12.00
2018-09-23T13:55:22.583Z,11.90
2018-09-23T13:57:51.211Z,11.90
2018-09-23T14:00:19.835Z,11.90
2018-09-23T14:02:48.414Z,11.90
2018-09-23T14:05:17.077Z,11.90
2018-09-23T14:07:45.664Z,11.90
2018-09-23T14:10:14.282Z,11.90
2018-09-23T14:12:42.947Z,11.90
2018-09-23T14:15:11.629Z,11.90
2018-09-23T14:17:40.201Z,11.80
2018-09-23T14:20:08.949Z,11.80
2018-09-23T14:22:38.575Z,11.90
2018-09-23T14:25:07.205Z,11.90
2018-09-23T14:27:35.799Z,11.90
2018-09-23T14:30:04.553Z,11.90
2018-09-23T14:32:35.207Z,11.90
2018-09-23T14:35:03.827Z,11.90
2018-09-23T14:37:32.408Z,11.90
2018-09-23T14:40:01.003Z,11.90
2018-09-23T14:42:29.616Z,12.00
2018-09-23T14:44:58.198Z,12.00
2018-09-23T14:47:26.769Z,12.00
2018-09-23T14:49:55.344Z,12.00
2018-09-23T14:52:23.950Z,12.00
2018-09-23T14:54:52.849Z,12.00
2018-09-23T14:57:21.337Z,12.00
2018-09-23T14:59:54.191Z,12.00
2018-09-23T15:02:18.670Z,12.00
2018-09-23T15:04:47.263Z,12.10
2018-09-23T15:07:15.901Z,12.10
2018-09-23T15:09:44.661Z,12.10
2018-09-23T15:12:13.272Z,12.10
2018-09-23T15:14:41.990Z,12.10
2018-09-23T15:17:10.544Z,12.10
2018-09-23T15:19:39.094Z,12.20
2018-09-23T15:22:08.206Z,12.20
2018-09-23T15:24:36.829Z,12.20
2018-09-23T15:27:05.860Z,12.20
2018-09-23T15:29:34.484Z,12.30
2018-09-23T15:32:03.133Z,12.30
2018-09-23T15:34:31.777Z,12.30
2018-09-23T15:37:00.342Z,12.30
2018-09-23T15:39:28.933Z,12.30
2018-09-23T15:41:57.507Z,12.40
2018-09-23T15:44:26.102Z,12.40
2018-09-23T15:46:54.678Z,12.40
2018-09-23T15:49:23.290Z,12.40
2018-09-23T15:51:51.917Z,12.40
2018-09-23T15:54:20.565Z,12.50
2018-09-23T15:56:49.165Z,12.50
2018-09-23T15:59:17.820Z,12.50
2018-09-23T16:01:46.618Z,12.60
2018-09-23T16:04:15.192Z,12.60
2018-09-23T16:06:43.765Z,12.60
2018-09-23T16:09:12.342Z,12.60
2018-09-23T16:11:40.923Z,12.70
2018-09-23T16:14:09.569Z,12.70
2018-09-23T16:16:38.153Z,12.70
2018-09-23T16:19:06.900Z,12.70
2018-09-23T16:21:35.455Z,12.70
2018-09-23T16:24:04.250Z,12.80
2018-09-23T16:26:33.181Z,12.80
2018-09-23T16:29:01.880Z,12.90
2018-09-23T16:31:30.490Z,13.00
2018-09-23T16:33:59.077Z,13.00
2018-09-23T16:36:27.641Z,13.00
2018-09-23T16:38:56.353Z,13.00
2018-09-23T16:41:24.957Z,13.00
2018-09-23T16:43:53.520Z,13.00
2018-09-23T16:46:22.095Z,13.00
2018-09-23T16:48:50.697Z,13.10
2018-09-23T16:51:19.349Z,13.10
2018-09-23T16:53:47.918Z,13.10
2018-09-23T16:56:16.654Z,13.10
2018-09-23T16:58:45.190Z,13.10
2018-09-23T17:01:13.763Z,13.10
2018-09-23T17:03:42.336Z,13.10
2018-09-23T17:06:11.036Z,12.80
2018-09-23T17:08:39.639Z,12.40
2018-09-23T17:11:08.220Z,12.10
2018-09-23T17:13:36.785Z,11.70
2018-09-23T17:16:05.353Z,11.40
2018-09-23T17:18:56.780Z,11.20
2018-09-23T17:21:25.971Z,11.10
2018-09-23T17:23:55.361Z,11.00
2018-09-23T17:26:24.328Z,10.90
2018-09-23T17:28:53.047Z,11.00
2018-09-23T17:31:24.768Z,10.90
2018-09-23T17:33:53.342Z,10.90
2018-09-23T17:36:22.323Z,10.80
2018-09-23T17:38:50.927Z,10.90
2018-09-23T17:41:19.528Z,10.90
2018-09-23T17:43:49.438Z,10.90
2018-09-23T17:46:18.209Z,10.90
2018-09-23T17:48:47.000Z,10.90
2018-09-23T17:51:15.660Z,10.90
2018-09-23T17:53:44.244Z,10.80
2018-09-23T17:56:13.198Z,10.90
2018-09-23T17:58:42.422Z,10.90
2018-09-23T18:01:12.441Z,10.90
2018-09-23T18:03:41.510Z,10.90
2018-09-23T18:06:10.440Z,10.90
2018-09-23T18:08:39.206Z,10.90
2018-09-23T18:11:09.091Z,10.80
2018-09-23T18:13:37.913Z,10.90
2018-09-23T18:16:06.840Z,10.80
2018-09-23T18:18:35.783Z,10.80
2018-09-23T18:21:10.601Z,10.80
2018-09-23T18:23:39.659Z,10.80
2018-09-23T18:26:08.554Z,10.70
2018-09-23T18:28:37.133Z,10.70
2018-09-23T18:31:06.920Z,10.80
2018-09-23T18:33:35.584Z,10.80
2018-09-23T18:36:04.487Z,10.80
2018-09-23T18:38:33.057Z,10.80
2018-09-23T18:41:01.676Z,10.90
2018-09-23T18:43:30.263Z,10.80
2018-09-23T18:45:58.958Z,10.90
2018-09-23T18:48:27.540Z,10.90
2018-09-23T18:50:56.095Z,10.90
2018-09-23T18:53:25.589Z,10.90
2018-09-23T18:55:54.711Z,10.90
2018-09-23T18:58:23.342Z,10.90
2018-09-23T19:00:52.029Z,10.90
2018-09-23T19:03:20.693Z,10.90
2018-09-23T19:05:49.239Z,10.90
2018-09-23T19:08:17.838Z,10.90
2018-09-23T19:10:46.385Z,10.90
2018-09-23T19:13:20.351Z,10.90
2018-09-23T19:16:53.567Z,10.90
2018-09-23T19:19:26.352Z,10.90
2018-09-23T19:22:07.494Z,10.90
2018-09-23T19:24:36.070Z,10.90
2018-09-23T19:27:04.695Z,10.90
2018-09-23T19:29:33.436Z,10.80
2018-09-23T19:32:02.115Z,10.80
2018-09-23T19:34:30.940Z,10.80
2018-09-23T19:36:59.837Z,10.70
2018-09-23T19:39:28.855Z,10.70
2018-09-23T19:41:57.680Z,10.70
2018-09-23T19:44:26.320Z,10.70
2018-09-23T19:46:55.960Z,10.70
2018-09-23T19:49:24.915Z,10.70
2018-09-23T19:51:53.733Z,10.70
2018-09-23T19:54:22.520Z,10.70
2018-09-23T19:56:51.357Z,10.60
2018-09-23T19:59:20.302Z,10.60
2018-09-23T20:01:48.969Z,10.70
2018-09-23T20:04:17.558Z,10.70
2018-09-23T20:06:46.154Z,10.60
2018-09-23T20:09:14.821Z,10.70
2018-09-23T20:11:43.489Z,10.60
2018-09-23T20:14:12.263Z,10.60
2018-09-23T20:16:41.069Z,10.60
2018-09-23T20:19:09.809Z,10.60
2018-09-23T20:21:38.390Z,10.60
2018-09-23T20:24:06.990Z,10.60
2018-09-23T20:26:35.595Z,10.60
2018-09-23T20:29:04.309Z,10.50
2018-09-23T20:31:33.793Z,10.50
2018-09-23T20:34:02.502Z,10.50
2018-09-23T20:36:31.077Z,10.40
2018-09-23T20:38:59.933Z,10.30
2018-09-23T20:41:28.684Z,10.10
2018-09-23T20:43:57.419Z,10.00
2018-09-23T20:46:26.082Z,9.80
2018-09-23T20:48:54.635Z,9.70
2018-09-23T20:51:24.248Z,9.50
2018-09-23T20:53:53.101Z,9.40
2018-09-23T20:56:21.845Z,9.30
2018-09-23T20:58:50.635Z,9.20
2018-09-23T21:01:19.341Z,9.20
2018-09-23T21:03:48.103Z,9.20
2018-09-23T21:06:16.775Z,9.20
2018-09-23T21:08:45.488Z,9.10
2018-09-23T21:11:14.298Z,9.10
2018-09-23T21:13:42.911Z,9.00
2018-09-23T21:16:12.081Z,9.00
2018-09-23T21:18:40.877Z,8.80
2018-09-23T21:21:09.672Z,8.80
2018-09-23T21:23:38.550Z,8.80
2018-09-23T21:26:10.768Z,8.70
2018-09-23T21:28:39.308Z,8.80
2018-09-23T21:31:09.971Z,8.70
2018-09-23T21:33:38.796Z,8.80
2018-09-23T21:36:07.661Z,8.80
2018-09-23T21:38:36.656Z,8.70
2018-09-23T21:41:05.439Z,8.70
2018-09-23T21:43:34.494Z,8.70
2018-09-23T21:46:03.325Z,8.70
2018-09-23T21:48:32.166Z,8.70
2018-09-23T21:51:01.000Z,8.70
2018-09-23T21:53:29.855Z,8.70
2018-09-23T21:55:58.690Z,8.60
2018-09-23T21:58:27.394Z,8.60
2018-09-23T22:00:56.173Z,8.60
2018-09-23T22:03:25.057Z,8.50
2018-09-23T22:05:53.752Z,8.50
2018-09-23T22:08:22.319Z,8.40
2018-09-23T22:10:50.882Z,8.30
2018-09-23T22:13:20.536Z,8.20
2018-09-23T22:15:50.055Z,8.20
2018-09-23T22:18:18.703Z,8.20
2018-09-23T22:20:47.409Z,8.20
2018-09-23T22:23:16.456Z,8.10
2018-09-23T22:25:45.169Z,8.10
2018-09-23T22:28:13.902Z,8.10
2018-09-23T22:30:42.673Z,8.10
2018-09-23T22:33:11.476Z,8.10
2018-09-23T22:35:46.515Z,8.10
2018-09-23T22:38:15.140Z,8.10
2018-09-23T22:40:44.607Z,8.00
2018-09-23T22:43:13.652Z,7.90
2018-09-23T22:45:42.604Z,7.80
2018-09-23T22:48:11.311Z,7.90
2018-09-23T22:50:40.311Z,7.80
2018-09-23T22:53:09.077Z,7.80
2018-09-23T22:55:37.753Z,7.80
2018-09-23T22:58:06.471Z,7.80
2018-09-23T23:00:35.336Z,7.80
2018-09-23T23:03:04.066Z,7.80
2018-09-23T23:05:33.899Z,7.80
2018-09-23T23:08:02.743Z,7.70
2018-09-23T23:10:31.482Z,7.70
2018-09-23T23:13:00.173Z,7.60
2018-09-23T23:15:29.235Z,7.50
2018-09-23T23:17:57.861Z,7.60
2018-09-23T23:20:26.545Z,7.60
2018-09-23T23:22:55.133Z,7.60
2018-09-23T23:25:24.336Z,7.70
2018-09-23T23:27:53.026Z,7.60
2018-09-23T23:30:21.939Z,7.60
2018-09-23T23:32:50.661Z,7.60
2018-09-23T23:35:19.266Z,7.50
2018-09-23T23:37:48.097Z,7.50
2018-09-23T23:40:18.201Z,7.50
2018-09-23T23:42:46.980Z,7.40
2018-09-23T23:45:15.874Z,7.40
2018-09-23T23:47:45.064Z,7.40
2018-09-23T23:50:14.669Z,7.50
2018-09-23T23:52:43.446Z,7.50
2018-09-23T23:55:12.399Z,7.40
2018-09-23T23:57:41.058Z,7.40
